createdAt,value
2023-03-22T00:37:47.012Z,65.83
2023-03-22T06:44:31.234Z,64.90
2023-03-22T06:48:07.665Z,64.67
2023-03-22T06:51:26.352Z,64.84
2023-03-22T06:54:33.126Z,64.21
2023-03-22T06:57:39.149Z,64.19
2023-03-22T07:00:49.493Z,64.59
2023-03-22T07:03:57.958Z,64.22
2023-03-22T07:07:04.778Z,64.03
2023-03-22T07:10:12.581Z,64.27
2023-03-22T07:13:19.371Z,64.28
2023-03-22T07:16:29.939Z,64.55
2023-03-22T07:19:40.953Z,64.36
2023-03-22T07:22:48.326Z,64.48
2023-03-22T07:25:56.115Z,63.61
2023-03-22T07:29:09.406Z,62.71
2023-03-22T07:32:20.224Z,63.38
2023-03-22T07:35:48.134Z,63.29
2023-03-22T07:38:55.065Z,62.47
2023-03-22T07:42:07.240Z,62.39
2023-03-22T07:45:32.601Z,62.51
2023-03-22T07:49:01.196Z,62.61
2023-03-22T07:52:29.696Z,61.48
2023-03-22T07:55:43.256Z,61.48
2023-03-22T07:58:50.526Z,60.67
2023-03-22T08:02:06.886Z,59.72
2023-03-22T08:05:25.609Z,58.54
2023-03-22T08:08:47.345Z,58.44
2023-03-22T08:12:04.467Z,57.54
2023-03-22T08:15:13.948Z,57.32
2023-03-22T08:18:22.085Z,57.01
2023-03-22T08:21:30.800Z,55.35
2023-03-22T08:24:38.733Z,54.45
2023-03-22T08:27:47.671Z,53.39
2023-03-22T08:30:54.627Z,52.36
2023-03-22T08:34:02.168Z,51.63
2023-03-22T08:37:13.816Z,53.19
2023-03-22T08:40:23.229Z,51.77
2023-03-22T08:43:34.030Z,52.14
2023-03-22T08:46:39.880Z,53.50
2023-03-22T08:49:46.783Z,53.67
2023-03-22T08:53:05.819Z,52.50
2023-03-22T08:56:15.127Z,52.85
2023-03-22T08:59:30.636Z,53.18
2023-03-22T09:02:58.591Z,53.26
2023-03-22T09:06:06.880Z,53.17
2023-03-22T09:09:20.443Z,53.44
2023-03-22T09:12:30.587Z,53.04
2023-03-22T09:15:38.182Z,52.22
2023-03-22T09:18:52.792Z,51.92
2023-03-22T09:22:01.746Z,52.33
2023-03-22T09:25:21.905Z,51.38
2023-03-22T09:28:30.121Z,51.81
2023-03-22T09:31:39.979Z,49.72
2023-03-22T09:35:07.236Z,49.56
2023-03-22T09:38:22.807Z,48.14
2023-03-22T09:41:46.743Z,46.18
2023-03-22T09:44:56.210Z,46.82
2023-03-22T09:48:15.040Z,47.37
2023-03-22T09:51:39.839Z,45.62
2023-03-22T09:54:52.212Z,45.85
2023-03-22T09:58:21.202Z,44.69
2023-03-22T10:01:40.768Z,44.09
2023-03-22T10:05:04.404Z,43.49
2023-03-22T10:08:50.594Z,41.84
2023-03-22T10:12:11.891Z,40.42
2023-03-22T10:15:27.400Z,40.23
2023-03-22T10:18:41.025Z,40.85
2023-03-22T10:21:53.401Z,40.02
2023-03-22T10:25:01.065Z,39.32
2023-03-22T10:28:22.388Z,39.01
2023-03-22T10:31:32.253Z,38.89
2023-03-22T10:34:38.914Z,38.64
2023-03-22T10:37:50.693Z,39.03
2023-03-22T10:41:02.352Z,38.65
2023-03-22T10:44:10.799Z,38.99
2023-03-22T10:47:32.682Z,37.80
2023-03-22T10:50:43.164Z,37.02
2023-03-22T10:53:58.417Z,37.62
2023-03-22T10:57:04.281Z,38.64
2023-03-22T11:00:13.767Z,38.36
2023-03-22T11:03:44.294Z,37.50
2023-03-22T11:06:56.162Z,37.25
2023-03-22T11:10:16.110Z,36.65
2023-03-22T11:13:26.100Z,36.22
2023-03-22T11:16:34.639Z,35.71
2023-03-22T11:19:55.639Z,33.60
2023-03-22T11:23:07.211Z,33.69
2023-03-22T11:26:17.146Z,32.33
2023-03-22T11:29:23.150Z,31.55
2023-03-22T11:32:33.392Z,30.36
2023-03-22T11:35:47.176Z,29.63
2023-03-22T11:39:02.012Z,30.07
2023-03-22T11:42:09.997Z,29.28
2023-03-22T11:45:30.361Z,28.84
2023-03-22T11:48:39.851Z,27.77
2023-03-22T11:51:49.565Z,26.70
2023-03-22T11:54:58.676Z,25.64
2023-03-22T11:58:07.486Z,25.44
2023-03-22T12:01:32.310Z,25.20
2023-03-22T12:04:44.693Z,24.39
2023-03-22T12:08:02.436Z,24.75
2023-03-22T12:11:18.822Z,23.85
2023-03-22T12:14:32.330Z,24.22
2023-03-22T12:17:50.415Z,22.97
2023-03-22T12:21:00.559Z,22.63
2023-03-22T12:24:29.317Z,22.48
2023-03-22T12:27:43.891Z,22.59
2023-03-22T12:30:56.446Z,22.76
2023-03-22T12:34:10.465Z,22.52
2023-03-22T12:37:27.299Z,21.97
2023-03-22T12:40:43.867Z,22.62
2023-03-22T12:43:58.766Z,22.10
2023-03-22T12:47:16.019Z,21.30
2023-03-22T12:50:32.517Z,21.90
2023-03-22T12:53:42.982Z,22.70
2023-03-22T12:56:56.039Z,23.30
2023-03-22T13:00:17.512Z,22.42
2023-03-22T13:03:32.563Z,23.58
2023-03-22T13:07:11.534Z,24.25
2023-03-22T13:11:25.271Z,23.72
2023-03-22T13:15:03.620Z,23.45
2023-03-22T13:18:33.649Z,23.21
2023-03-22T13:21:43.584Z,23.53
2023-03-22T13:25:10.006Z,21.92
2023-03-22T13:28:31.083Z,21.70
2023-03-22T13:31:49.332Z,21.76
2023-03-22T13:34:56.871Z,20.87
2023-03-22T13:38:11.880Z,21.62
2023-03-22T13:41:29.826Z,21.66
2023-03-22T13:44:46.113Z,21.33
2023-03-22T13:48:09.531Z,20.85
2023-03-22T13:51:30.520Z,21.00
2023-03-22T13:54:46.788Z,20.77
2023-03-22T13:58:02.985Z,21.36
2023-03-22T14:01:18.739Z,21.59
2023-03-22T14:04:40.740Z,20.83
2023-03-22T14:07:56.389Z,21.50
2023-03-22T14:11:21.044Z,21.86
2023-03-22T14:14:38.118Z,22.62
2023-03-22T14:17:52.544Z,23.38
2023-03-22T14:21:06.605Z,23.95
2023-03-22T14:53:02.079Z,27.20
2023-03-22T14:56:18.934Z,27.29
2023-03-22T14:59:27.310Z,27.51
2023-03-22T15:02:42.563Z,28.45
2023-03-22T15:05:50.347Z,29.09
2023-03-22T15:09:11.396Z,29.42
2023-03-22T15:12:22.170Z,29.57
2023-03-22T15:15:44.252Z,29.55
2023-03-22T15:18:53.709Z,29.73
2023-03-22T15:22:08.673Z,30.14
2023-03-22T15:25:54.633Z,29.67
2023-03-22T15:29:16.703Z,30.58
2023-03-22T15:32:28.994Z,30.38
2023-03-22T15:35:40.642Z,31.30
2023-03-22T15:38:53.030Z,31.48
2023-03-22T15:42:18.410Z,31.61
2023-03-22T15:45:26.071Z,32.52
2023-03-22T15:48:32.962Z,32.42
2023-03-22T15:51:40.990Z,32.18
2023-03-22T15:54:54.453Z,32.73
2023-03-22T15:58:08.683Z,32.75
2023-03-22T16:01:21.495Z,33.24
2023-03-22T16:04:35.841Z,33.60
2023-03-22T16:07:42.544Z,33.44
2023-03-22T16:10:52.572Z,34.20
2023-03-22T16:14:01.906Z,34.09
2023-03-22T16:17:07.744Z,34.01
2023-03-22T16:20:17.660Z,34.08
2023-03-22T16:23:26.838Z,34.59
2023-03-22T16:26:34.170Z,34.87
2023-03-22T16:29:42.924Z,34.53
2023-03-22T16:32:53.539Z,35.02
2023-03-22T16:36:00.160Z,35.16
2023-03-22T16:39:07.522Z,35.79
2023-03-22T16:42:17.657Z,35.87
2023-03-22T16:45:33.322Z,36.38
2023-03-22T16:48:39.720Z,36.10
2023-03-22T16:51:47.587Z,36.32
2023-03-22T16:54:57.108Z,36.80
2023-03-22T16:58:04.726Z,37.01
2023-03-22T17:01:18.165Z,37.26
2023-03-22T17:04:25.774Z,37.70
2023-03-22T17:07:36.195Z,37.68
2023-03-22T17:10:43.650Z,37.86
2023-03-22T17:13:50.147Z,38.01
2023-03-22T17:16:59.683Z,38.19
2023-03-22T17:20:06.580Z,38.38
2023-03-22T17:23:15.917Z,38.86
2023-03-22T17:26:22.758Z,38.76
2023-03-22T17:29:29.550Z,38.58
2023-03-22T17:32:59.444Z,39.40
2023-03-22T17:36:05.644Z,39.25
2023-03-22T17:39:35.439Z,38.71
2023-03-22T17:42:38.279Z,39.03
2023-03-22T17:46:11.245Z,39.31
2023-03-22T17:49:13.578Z,39.90
2023-03-22T17:52:20.328Z,39.92
2023-03-22T17:58:42.438Z,40.13
2023-03-22T18:01:49.684Z,40.30
2023-03-22T18:04:58.354Z,40.57
2023-03-22T18:08:26.395Z,40.44
2023-03-22T18:11:31.827Z,40.95
2023-03-22T18:14:41.299Z,40.55
2023-03-22T18:17:51.296Z,41.04
2023-03-22T18:21:06.496Z,41.61
2023-03-22T18:24:12.897Z,41.06
2023-03-22T18:27:20.021Z,41.11
2023-03-22T18:30:28.850Z,40.97
2023-03-22T18:33:35.909Z,41.99
2023-03-22T18:36:44.652Z,42.17
2023-03-22T18:43:21.536Z,43.18
2023-03-22T18:46:29.142Z,42.98
2023-03-22T18:49:37.240Z,43.00
2023-03-22T18:53:06.288Z,43.23
2023-03-22T18:59:22.899Z,44.17
2023-03-22T19:05:39.851Z,44.15
2023-03-22T19:08:51.050Z,44.48
2023-03-22T19:11:58.236Z,44.33
2023-03-22T19:18:13.733Z,43.96
2023-03-22T19:21:30.411Z,44.07
2023-03-22T19:24:41.492Z,44.27
2023-03-22T19:27:47.748Z,44.36
2023-03-22T19:30:57.419Z,44.15
2023-03-22T19:34:06.501Z,44.35
2023-03-22T19:37:14.038Z,44.52
2023-03-22T19:43:33.302Z,45.05
2023-03-22T19:46:40.514Z,45.11
2023-03-22T19:49:48.111Z,44.95
2023-03-22T19:52:57.857Z,45.09
2023-03-22T19:56:11.790Z,45.08
2023-03-22T19:59:18.684Z,45.39
2023-03-22T20:02:26.516Z,45.50
2023-03-22T20:05:40.108Z,45.50
2023-03-22T20:08:50.871Z,46.00
2023-03-22T20:11:59.609Z,45.73
2023-03-22T20:15:06.625Z,45.98
2023-03-22T20:18:12.484Z,45.95
2023-03-22T20:21:19.198Z,45.96
2023-03-22T20:24:25.959Z,46.34
2023-03-22T20:27:37.590Z,46.23
2023-03-22T20:30:43.618Z,46.35
2023-03-22T20:33:50.429Z,46.24
2023-03-22T20:36:56.406Z,46.14
2023-03-22T20:40:05.594Z,46.18
2023-03-22T20:43:14.243Z,46.64
2023-03-22T20:46:20.845Z,46.77
2023-03-22T20:49:26.830Z,46.42
2023-03-22T20:52:33.562Z,46.16
2023-03-22T20:55:39.773Z,46.59
2023-03-22T20:58:49.680Z,46.52
2023-03-22T21:01:56.153Z,47.06
2023-03-22T21:05:04.636Z,47.10
2023-03-22T21:08:11.479Z,46.95
2023-03-22T21:11:33.566Z,46.98
2023-03-22T21:14:42.135Z,46.44
2023-03-22T21:17:49.442Z,46.27
2023-03-22T21:20:58.237Z,46.67
2023-03-22T21:24:04.970Z,47.16
2023-03-22T21:27:11.107Z,46.93
2023-03-22T21:30:20.694Z,47.38
2023-03-22T21:33:27.609Z,47.39
2023-03-22T21:36:37.377Z,47.84
2023-03-22T21:39:54.108Z,47.74
2023-03-22T21:43:03.937Z,47.50
2023-03-22T21:46:14.180Z,47.61
2023-03-22T21:49:26.358Z,48.01
2023-03-22T21:52:32.651Z,48.57
2023-03-22T21:55:39.558Z,48.67
2023-03-22T21:58:46.064Z,48.44
2023-03-22T22:01:59.783Z,48.31
2023-03-22T22:05:14.087Z,48.40
2023-03-22T22:08:21.912Z,48.62
2023-03-22T22:11:33.257Z,48.05
2023-03-22T22:14:40.811Z,48.07
2023-03-22T22:17:52.721Z,48.22
2023-03-22T22:21:01.719Z,48.51
2023-03-22T22:24:15.733Z,48.39
2023-03-22T22:27:23.548Z,48.14
2023-03-22T22:30:30.058Z,48.04
2023-03-22T22:33:42.180Z,47.92
2023-03-22T22:36:48.010Z,48.33
2023-03-22T22:39:54.683Z,48.46
2023-03-22T22:43:03.104Z,47.81
2023-03-22T22:46:20.661Z,48.16
2023-03-22T22:49:34.479Z,48.47
2023-03-22T22:52:43.025Z,48.45
2023-03-22T22:55:49.709Z,48.36
2023-03-22T22:58:56.724Z,48.20
2023-03-22T23:02:02.627Z,48.12
2023-03-22T23:05:14.909Z,48.03
2023-03-22T23:08:21.482Z,48.13
2023-03-22T23:11:29.935Z,48.15
2023-03-22T23:14:36.571Z,47.81
2023-03-22T23:17:47.599Z,48.03
2023-03-22T23:21:00.268Z,48.05
2023-03-22T23:24:07.937Z,48.20
2023-03-22T23:27:14.568Z,48.30
2023-03-22T23:30:23.003Z,47.97
2023-03-22T23:33:28.954Z,48.11
2023-03-22T23:36:44.145Z,48.04
2023-03-22T23:39:50.015Z,47.91
2023-03-22T23:46:23.158Z,47.95
2023-03-22T23:49:29.859Z,48.55
2023-03-22T23:52:38.531Z,48.77
2023-03-22T23:55:45.312Z,48.98
2023-03-22T23:58:55.742Z,48.94
